Terminal Aerodrome Forecast
Issued by NWS

Home | Current Version | Previous Version | Text Only | Print | Product List | Glossary On
Versions: 1 2 3 4 5 6 7 8 9 10 11 12 13 14 15 16 17 18 19 20 21 22
514
FTUS46 KEKA 270521
TAFCEC
TAF
KCEC 270521Z 2706/2806 16004KT 6SM BR SCT005
      TEMPO 2706/2710 2SM BR BKN002
     FM271200 VRB03KT 1SM BR OVC002
     FM271500 30003KT 3SM BR SCT010
     FM271800 24010KT P6SM SKC
     FM280200 VRB03KT 6SM BR FEW005=

USA.gov is the U.S. government's official web portal to all federal, state and local government web resources and services.